SDA131 NZWF-NZMF
Flight info
| Callsign | SDA131 |
|---|---|
| Flight time | 0h 37m |
| Altitude | 14000 |
| Route | GEBAY DCT TFILD DCT KSADE DCT YPONT DCT DPONT |
| Aircraft | C208/L-SDFGRY/C |
Departure
| Time | 2026-04-22 20:34 |
|---|---|
| Airport | Wanaka Airport (NZWF) |
Arrival
| Time | 2026-04-22 21:11 |
|---|---|
| Airport | Milford Sound Airport (NZMF) |
| Time | Latitude | Longitude | Altitude | Speed | Heading |
|---|---|---|---|---|---|
| 2026-04-22 20:24 | -44.72312 | 169.24457 | 1143 ft | 0 kts | 137° |
| 2026-04-22 20:30 | -44.72308 | 169.24452 | 1143 ft | 4 kts | 144° |
| 2026-04-22 20:30 | -44.72284 | 169.24457 | 1143 ft | 4 kts | 220° |
| 2026-04-22 20:31 | -44.72267 | 169.24469 | 1145 ft | 1 kts | 102° |
| 2026-04-22 20:31 | -44.72266 | 169.24463 | 1143 ft | 0 kts | 102° |
| 2026-04-22 20:32 | -44.72268 | 169.24479 | 1145 ft | 7 kts | 84° |
| 2026-04-22 20:33 | -44.72208 | 169.24583 | 1144 ft | 18 kts | 68° |
| 2026-04-22 20:33 | -44.72308 | 169.24739 | 1136 ft | 29 kts | 141° |
| 2026-04-22 20:33 | -44.72481 | 169.24962 | 1124 ft | 39 kts | 139° |
| 2026-04-22 20:33 | -44.72590 | 169.25096 | 1121 ft | 5 kts | 101° |
| 2026-04-22 20:34 | -44.72583 | 169.25103 | 1121 ft | 0 kts | 348° |
| 2026-04-22 20:34 | -44.72554 | 169.25068 | 1117 ft | 21 kts | 320° |
| 2026-04-22 20:34 | -44.72314 | 169.24766 | 1139 ft | 70 kts | 319° |
| 2026-04-22 20:34 | -44.71948 | 169.24313 | 6393 ft | 109 kts | 320° |
| 2026-04-22 20:35 | -44.71525 | 169.23840 | 7632 ft | 103 kts | 320° |
| 2026-04-22 20:35 | -44.70958 | 169.23245 | 7440 ft | 102 kts | 321° |
| 2026-04-22 20:35 | -44.70370 | 169.22673 | 7265 ft | 107 kts | 324° |
| 2026-04-22 20:35 | -44.69769 | 169.22019 | 7475 ft | 106 kts | 317° |
| 2026-04-22 20:36 | -44.69220 | 169.21276 | 7559 ft | 122 kts | 310° |
| 2026-04-22 20:36 | -44.68703 | 169.20345 | 7801 ft | 120 kts | 305° |
| 2026-04-22 20:36 | -44.68165 | 169.19406 | 7941 ft | 128 kts | 308° |
| 2026-04-22 20:36 | -44.67665 | 169.18367 | 8033 ft | 130 kts | 282° |
| 2026-04-22 20:37 | -44.67610 | 169.17113 | 8136 ft | 126 kts | 269° |
| 2026-04-22 20:37 | -44.67549 | 169.15894 | 8214 ft | 128 kts | 272° |
| 2026-04-22 20:37 | -44.67508 | 169.15265 | 8258 ft | 129 kts | 272° |
| 2026-04-22 20:38 | -44.67478 | 169.14854 | 8291 ft | 130 kts | 273° |
| 2026-04-22 20:38 | -44.67377 | 169.13586 | 8394 ft | 131 kts | 274° |
| 2026-04-22 20:39 | -44.67274 | 169.12320 | 8495 ft | 132 kts | 274° |
| 2026-04-22 20:39 | -44.67168 | 169.11036 | 8596 ft | 132 kts | 274° |
| 2026-04-22 20:39 | -44.67061 | 169.09749 | 8697 ft | 133 kts | 273° |
| 2026-04-22 20:39 | -44.66954 | 169.08465 | 8795 ft | 133 kts | 273° |
| 2026-04-22 20:40 | -44.66845 | 169.07178 | 8896 ft | 133 kts | 274° |
| 2026-04-22 20:40 | -44.66737 | 169.05887 | 8996 ft | 133 kts | 274° |
| 2026-04-22 20:40 | -44.66629 | 169.04630 | 9093 ft | 132 kts | 273° |
| 2026-04-22 20:40 | -44.66523 | 169.03347 | 9193 ft | 132 kts | 273° |
| 2026-04-22 20:41 | -44.66380 | 169.02064 | 9290 ft | 134 kts | 284° |
| 2026-04-22 20:41 | -44.66062 | 169.00823 | 9396 ft | 135 kts | 286° |
| 2026-04-22 20:41 | -44.65758 | 168.99572 | 9492 ft | 135 kts | 285° |
| 2026-04-22 20:41 | -44.65450 | 168.98321 | 9591 ft | 136 kts | 285° |
| 2026-04-22 20:42 | -44.65142 | 168.97068 | 9690 ft | 136 kts | 285° |
| 2026-04-22 20:42 | -44.64834 | 168.95807 | 9795 ft | 137 kts | 285° |
| 2026-04-22 20:42 | -44.64524 | 168.94538 | 9892 ft | 137 kts | 285° |
| 2026-04-22 20:42 | -44.64213 | 168.93269 | 9992 ft | 137 kts | 284° |
| 2026-04-22 20:43 | -44.63908 | 168.92019 | 10091 ft | 138 kts | 284° |
| 2026-04-22 20:43 | -44.63590 | 168.90725 | 10192 ft | 139 kts | 284° |
| 2026-04-22 20:43 | -44.63283 | 168.89452 | 10289 ft | 139 kts | 281° |
| 2026-04-22 20:43 | -44.63037 | 168.88135 | 10396 ft | 140 kts | 281° |
| 2026-04-22 20:44 | -44.62768 | 168.86816 | 10492 ft | 140 kts | 280° |
| 2026-04-22 20:44 | -44.62510 | 168.85504 | 10593 ft | 140 kts | 280° |
| 2026-04-22 20:44 | -44.62249 | 168.84189 | 10691 ft | 140 kts | 280° |
| 2026-04-22 20:44 | -44.61989 | 168.82869 | 10791 ft | 141 kts | 280° |
| 2026-04-22 20:45 | -44.61727 | 168.81543 | 10895 ft | 141 kts | 279° |
| 2026-04-22 20:45 | -44.61467 | 168.80223 | 10989 ft | 142 kts | 280° |
| 2026-04-22 20:45 | -44.61203 | 168.78898 | 11089 ft | 140 kts | 279° |
| 2026-04-22 20:45 | -44.60943 | 168.77579 | 11187 ft | 140 kts | 279° |
| 2026-04-22 20:46 | -44.60416 | 168.74929 | 11378 ft | 139 kts | 279° |
| 2026-04-22 20:46 | -44.60165 | 168.73652 | 11466 ft | 133 kts | 279° |
| 2026-04-22 20:46 | -44.59919 | 168.72398 | 11568 ft | 135 kts | 278° |
| 2026-04-22 20:47 | -44.59665 | 168.71110 | 11666 ft | 138 kts | 278° |
| 2026-04-22 20:47 | -44.59406 | 168.69801 | 11777 ft | 141 kts | 278° |
| 2026-04-22 20:47 | -44.59136 | 168.68469 | 11872 ft | 141 kts | 278° |
| 2026-04-22 20:47 | -44.58871 | 168.67152 | 11969 ft | 140 kts | 278° |
| 2026-04-22 20:48 | -44.58615 | 168.65857 | 12071 ft | 139 kts | 277° |
| 2026-04-22 20:48 | -44.58354 | 168.64538 | 12184 ft | 141 kts | 277° |
| 2026-04-22 20:48 | -44.58089 | 168.63205 | 12277 ft | 142 kts | 278° |
| 2026-04-22 20:48 | -44.57820 | 168.61866 | 12378 ft | 142 kts | 278° |
| 2026-04-22 20:49 | -44.57553 | 168.60514 | 12487 ft | 146 kts | 278° |
| 2026-04-22 20:49 | -44.57276 | 168.59126 | 12594 ft | 150 kts | 278° |
| 2026-04-22 20:49 | -44.56992 | 168.57711 | 12697 ft | 150 kts | 278° |
| 2026-04-22 20:49 | -44.56711 | 168.56294 | 12807 ft | 152 kts | 278° |
| 2026-04-22 20:50 | -44.56423 | 168.54879 | 12892 ft | 151 kts | 278° |
| 2026-04-22 20:50 | -44.56145 | 168.53505 | 12986 ft | 143 kts | 276° |
| 2026-04-22 20:50 | -44.55881 | 168.52157 | 13082 ft | 143 kts | 276° |
| 2026-04-22 20:50 | -44.55611 | 168.50809 | 13180 ft | 144 kts | 277° |
| 2026-04-22 20:51 | -44.55341 | 168.49448 | 13284 ft | 146 kts | 277° |
| 2026-04-22 20:51 | -44.55061 | 168.48059 | 13387 ft | 149 kts | 278° |
| 2026-04-22 20:51 | -44.54778 | 168.46653 | 13503 ft | 151 kts | 276° |
| 2026-04-22 20:51 | -44.54489 | 168.45223 | 13612 ft | 154 kts | 277° |
| 2026-04-22 20:52 | -44.54195 | 168.43763 | 13723 ft | 157 kts | 277° |
| 2026-04-22 20:52 | -44.53898 | 168.42293 | 13834 ft | 161 kts | 277° |
| 2026-04-22 20:52 | -44.53592 | 168.40767 | 13940 ft | 163 kts | 277° |
| 2026-04-22 20:52 | -44.53282 | 168.39230 | 14037 ft | 164 kts | 278° |
| 2026-04-22 20:53 | -44.52972 | 168.37705 | 14134 ft | 162 kts | 278° |
| 2026-04-22 20:53 | -44.52674 | 168.36227 | 14227 ft | 160 kts | 277° |
| 2026-04-22 20:53 | -44.52372 | 168.34724 | 14324 ft | 160 kts | 278° |
| 2026-04-22 20:53 | -44.52067 | 168.33223 | 14369 ft | 161 kts | 278° |
| 2026-04-22 20:54 | -44.51758 | 168.31694 | 14371 ft | 164 kts | 278° |
| 2026-04-22 20:54 | -44.51444 | 168.30144 | 14376 ft | 167 kts | 278° |
| 2026-04-22 20:54 | -44.51131 | 168.28598 | 14385 ft | 165 kts | 278° |
| 2026-04-22 20:54 | -44.50814 | 168.27043 | 14377 ft | 165 kts | 278° |
| 2026-04-22 20:55 | -44.50509 | 168.25544 | 14370 ft | 159 kts | 278° |
| 2026-04-22 20:55 | -44.50211 | 168.24077 | 14372 ft | 156 kts | 277° |
| 2026-04-22 20:55 | -44.49912 | 168.22582 | 14372 ft | 163 kts | 278° |
| 2026-04-22 20:55 | -44.49595 | 168.21042 | 14375 ft | 165 kts | 277° |
| 2026-04-22 20:56 | -44.49281 | 168.19487 | 14378 ft | 167 kts | 277° |
| 2026-04-22 20:56 | -44.48962 | 168.17921 | 14382 ft | 168 kts | 278° |
| 2026-04-22 20:56 | -44.48638 | 168.16339 | 14386 ft | 169 kts | 278° |
| 2026-04-22 20:56 | -44.48312 | 168.14746 | 14387 ft | 171 kts | 278° |
| 2026-04-22 20:57 | -44.47982 | 168.13134 | 14385 ft | 173 kts | 278° |
| 2026-04-22 20:57 | -44.47650 | 168.11508 | 14133 ft | 172 kts | 278° |
| 2026-04-22 20:57 | -44.47330 | 168.09926 | 13801 ft | 171 kts | 277° |
| 2026-04-22 20:57 | -44.47003 | 168.08315 | 13483 ft | 174 kts | 278° |
| 2026-04-22 20:58 | -44.46672 | 168.06714 | 13153 ft | 168 kts | 278° |
| 2026-04-22 20:58 | -44.46355 | 168.05155 | 12821 ft | 165 kts | 278° |
| 2026-04-22 20:58 | -44.46043 | 168.03618 | 12486 ft | 163 kts | 278° |
| 2026-04-22 20:58 | -44.45736 | 168.02127 | 12162 ft | 158 kts | 278° |
| 2026-04-22 20:59 | -44.45431 | 168.00643 | 11826 ft | 157 kts | 278° |
| 2026-04-22 20:59 | -44.45196 | 167.99185 | 11497 ft | 151 kts | 262° |
| 2026-04-22 20:59 | -44.45411 | 167.97810 | 11171 ft | 141 kts | 240° |
| 2026-04-22 20:59 | -44.45759 | 167.96532 | 10887 ft | 139 kts | 243° |
| 2026-04-22 21:00 | -44.46083 | 167.95278 | 10613 ft | 139 kts | 243° |
| 2026-04-22 21:00 | -44.46414 | 167.94011 | 10338 ft | 139 kts | 244° |
| 2026-04-22 21:00 | -44.46747 | 167.92738 | 10068 ft | 139 kts | 245° |
| 2026-04-22 21:00 | -44.47078 | 167.91466 | 9785 ft | 139 kts | 245° |
| 2026-04-22 21:01 | -44.47410 | 167.90187 | 9514 ft | 140 kts | 246° |
| 2026-04-22 21:01 | -44.47746 | 167.88899 | 9241 ft | 140 kts | 246° |
| 2026-04-22 21:01 | -44.48079 | 167.87616 | 8965 ft | 139 kts | 247° |
| 2026-04-22 21:01 | -44.48408 | 167.86349 | 8691 ft | 138 kts | 248° |
| 2026-04-22 21:02 | -44.48738 | 167.85079 | 8416 ft | 139 kts | 248° |
| 2026-04-22 21:02 | -44.49070 | 167.83807 | 8139 ft | 138 kts | 248° |
| 2026-04-22 21:02 | -44.49449 | 167.82580 | 7861 ft | 136 kts | 232° |
| 2026-04-22 21:02 | -44.50183 | 167.81786 | 7585 ft | 133 kts | 201° |
| 2026-04-22 21:03 | -44.51088 | 167.81602 | 7293 ft | 133 kts | 177° |
| 2026-04-22 21:03 | -44.52012 | 167.81626 | 6992 ft | 133 kts | 179° |
| 2026-04-22 21:03 | -44.52941 | 167.81617 | 6698 ft | 133 kts | 185° |
| 2026-04-22 21:03 | -44.53727 | 167.80977 | 6401 ft | 135 kts | 228° |
| 2026-04-22 21:04 | -44.54321 | 167.79957 | 6107 ft | 135 kts | 229° |
| 2026-04-22 21:04 | -44.54898 | 167.78893 | 5749 ft | 140 kts | 244° |
| 2026-04-22 21:04 | -44.54888 | 167.77566 | 5383 ft | 145 kts | 295° |
| 2026-04-22 21:04 | -44.54306 | 167.76410 | 5024 ft | 146 kts | 317° |
| 2026-04-22 21:05 | -44.53369 | 167.75964 | 4655 ft | 146 kts | 8° |
| 2026-04-22 21:05 | -44.52544 | 167.76679 | 4289 ft | 142 kts | 60° |
| 2026-04-22 21:05 | -44.52447 | 167.77962 | 3975 ft | 134 kts | 114° |
| 2026-04-22 21:05 | -44.53100 | 167.78820 | 3687 ft | 130 kts | 154° |
| 2026-04-22 21:06 | -44.53915 | 167.79377 | 3395 ft | 130 kts | 153° |
| 2026-04-22 21:06 | -44.54754 | 167.79816 | 3099 ft | 129 kts | 166° |
| 2026-04-22 21:06 | -44.55630 | 167.80110 | 2795 ft | 129 kts | 166° |
| 2026-04-22 21:06 | -44.56505 | 167.80407 | 2507 ft | 130 kts | 166° |
| 2026-04-22 21:07 | -44.57385 | 167.80707 | 2207 ft | 129 kts | 166° |
| 2026-04-22 21:07 | -44.58249 | 167.81002 | 1985 ft | 124 kts | 166° |
| 2026-04-22 21:07 | -44.59062 | 167.81281 | 1828 ft | 118 kts | 163° |
| 2026-04-22 21:07 | -44.59737 | 167.81888 | 1658 ft | 116 kts | 131° |
| 2026-04-22 21:08 | -44.60154 | 167.82821 | 1506 ft | 115 kts | 121° |
| 2026-04-22 21:08 | -44.60571 | 167.83781 | 1353 ft | 115 kts | 122° |
| 2026-04-22 21:08 | -44.60980 | 167.84729 | 1222 ft | 112 kts | 122° |
| 2026-04-22 21:08 | -44.61378 | 167.85654 | 1115 ft | 109 kts | 122° |
| 2026-04-22 21:09 | -44.61811 | 167.86519 | 1008 ft | 108 kts | 130° |
| 2026-04-22 21:09 | -44.62303 | 167.87256 | 993 ft | 100 kts | 137° |
| 2026-04-22 21:09 | -44.62797 | 167.87913 | 997 ft | 97 kts | 136° |
| 2026-04-22 21:09 | -44.63309 | 167.88556 | 1016 ft | 99 kts | 140° |
| 2026-04-22 21:10 | -44.63896 | 167.89159 | 956 ft | 108 kts | 147° |
| 2026-04-22 21:10 | -44.64568 | 167.89707 | 854 ft | 117 kts | 153° |
| 2026-04-22 21:10 | -44.65283 | 167.90174 | 753 ft | 113 kts | 157° |
| 2026-04-22 21:10 | -44.65993 | 167.90615 | 533 ft | 113 kts | 154° |
| 2026-04-22 21:11 | -44.66624 | 167.91148 | 289 ft | 103 kts | 144° |
| 2026-04-22 21:11 | -44.67106 | 167.91844 | 50 ft | 97 kts | 128° |
| 2026-04-22 21:11 | -44.67444 | 167.92508 | 23 ft | 65 kts | 125° |
| 2026-04-22 21:11 | -44.67536 | 167.92685 | 23 ft | 8 kts | 128° |
| 2026-04-22 21:12 | -44.67530 | 167.92696 | 23 ft | 7 kts | 292° |
| 2026-04-22 21:12 | -44.67470 | 167.92558 | 24 ft | 18 kts | 305° |
| 2026-04-22 21:12 | -44.67413 | 167.92447 | 24 ft | 10 kts | 303° |
| 2026-04-22 21:12 | -44.67390 | 167.92402 | 25 ft | 9 kts | 307° |
| 2026-04-22 21:13 | -44.67327 | 167.92385 | 23 ft | 10 kts | 32° |
| 2026-04-22 21:13 | -44.67303 | 167.92401 | 23 ft | 1 kts | 336° |
| 2026-04-22 21:13 | -44.67291 | 167.92390 | 23 ft | 4 kts | 309° |
| 2026-04-22 21:13 | -44.67250 | 167.92326 | 23 ft | 13 kts | 317° |
| 2026-04-22 21:14 | -44.67239 | 167.92349 | 23 ft | 3 kts | 133° |
| 2026-04-22 21:14 | -44.67246 | 167.92359 | 23 ft | 0 kts | 143° |